Latest Weather Observations for Geelong Racecourse

IDV60901

Issued at 9:21 am EST Saturday 27 August 2016 (issued every 10 minutes, with the page automatically refreshed every 10 minutes)

About weather observations | Map of Melbourne area stations | Latest observations for Melbourne area | Other Formats
Station Details ID: 087184 Name: GEELONG RACECOURSE Lat: -38.17 Lon: 144.38 Height: 12.9 m
Data from the previous 72 hours. | See also: Recent months at Geelong Racecourse
Date/Time
EST
Temp
°C
App
Temp
°C
Dew
Point
°C
Rel
Hum
%
Delta-T
°C
Wind Press
QNH
hPa
Press
MSL
hPa
Rain since
9am
mm
Dir  Spd
km/h
Gust
km/h
Spd
kts
Gust
kts
27/09:00am 10.8 6.0 4.7 66 2.7 NW 19 33 10 18 1021.1 1021.1 0.2
27/08:30am 9.9 6.4 5.3 73 2.1 NNW 13 22 7 12 1021.3 1021.3 0.2
27/08:00am 8.3 4.8 5.4 82 1.3 NW 13 20 7 11 1021.4 1021.4 0.2
27/07:30am 6.8 4.1 5.6 92 0.5 NW 9 13 5 7 1021.5 1021.5 0.2
27/07:00am 6.2 3.0 5.0 92 0.5 NW 11 15 6 8 1021.1 1021.1 0.2
27/06:30am 6.0 3.1 4.8 92 0.5 NW 9 13 5 7 1021.2 1021.2 0.2
27/06:00am 5.3 2.7 4.3 93 0.4 WNW 7 11 4 6 1021.2 1021.2 0.0
27/05:30am 6.0 3.5 4.8 92 0.5 NW 7 9 4 5 1020.7 1020.7 0.0
27/05:00am 6.1 3.7 5.1 93 0.4 NNW 7 9 4 5 1020.5 1020.5 0.0
27/04:30am 6.4 3.3 5.4 93 0.4 NNW 11 17 6 9 1020.2 1020.2 0.0
27/04:00am 5.6 2.7 4.6 93 0.4 NNW 9 11 5 6 1020.4 1020.4 0.0
27/03:30am 6.0 3.2 5.0 93 0.4 NNW 9 11 5 6 1020.5 1020.5 0.0
27/03:00am 6.3 3.9 5.3 93 0.4 NNW 7 9 4 5 1020.5 1020.5 0.0
27/02:30am 6.5 4.2 5.5 93 0.4 NNW 7 11 4 6 1020.6 1020.6 0.0
27/02:00am 6.8 4.1 5.7 93 0.5 NNW 9 11 5 6 1020.9 1020.9 0.0
27/01:30am 6.9 4.2 5.8 93 0.5 NNW 9 11 5 6 1021.1 1021.1 0.0
27/01:00am 7.0 4.3 5.8 92 0.5 NW 9 11 5 6 1021.3 1021.3 0.0
27/12:30am 7.4 4.4 6.2 92 0.5 NW 11 15 6 8 1021.6 1021.6 0.0
27/12:00am 7.5 4.9 6.3 92 0.5 NW 9 15 5 8 1021.7 1021.7 0.0
 
Date/Time
EST
Temp
°C
App
Temp
°C
Dew
Point
°C
Rel
Hum
%
Delta-T
°C
Wind Press
QNH
hPa
Press
MSL
hPa
Rain since
9am
mm
Dir  Spd
km/h
Gust
km/h
Spd
kts
Gust
kts
26/11:30pm 7.4 4.8 6.3 93 0.5 NNW 9 13 5 7 1021.7 1021.7 0.0
26/11:00pm 7.7 5.2 6.5 92 0.5 NW 9 13 5 7 1021.8 1021.8 0.0
26/10:30pm 8.2 6.1 6.5 89 0.8 NW 7 13 4 7 1021.8 1021.8 0.0
26/10:00pm 8.4 6.2 6.2 86 1.0 NW 7 11 4 6 1021.7 1021.7 0.0
26/09:30pm 8.7 6.1 6.0 83 1.2 NW 9 13 5 7 1021.6 1021.6 0.0
26/09:00pm 9.1 6.5 6.2 82 1.3 NW 9 11 5 6 1021.5 1021.5 0.0
26/08:30pm 9.9 7.0 6.3 78 1.7 NW 11 17 6 9 1021.5 1021.5 0.0
26/08:00pm 10.2 7.7 6.5 78 1.7 WNW 9 17 5 9 1021.5 1021.5 0.0
26/07:30pm 10.4 7.9 6.5 77 1.8 NW 9 15 5 8 1021.4 1021.4 0.0
26/07:00pm 10.5 8.4 6.8 78 1.7 NW 7 11 4 6 1021.4 1021.4 0.0
26/06:30pm 10.6 8.5 6.6 76 1.9 NW 7 13 4 7 1021.1 1021.1 0.0
26/06:00pm 10.5 8.2 5.9 73 2.1 WNW 7 11 4 6 1020.7 1020.7 0.0
26/05:30pm 11.7 8.7 6.0 68 2.7 WNW 11 17 6 9 1020.6 1020.6 0.0
26/05:00pm 12.1 9.0 5.5 64 3.1 WNW 11 20 6 11 1020.4 1020.4 0.0
26/04:30pm 12.3 8.8 5.5 63 3.2 WNW 13 20 7 11 1020.2 1020.2 0.0
26/04:00pm 12.3 8.9 5.9 65 3.0 WNW 13 20 7 11 1020.1 1020.1 0.0
26/03:30pm 12.3 8.1 5.9 65 3.0 WNW 17 24 9 13 1020.2 1020.2 0.0
26/03:00pm 12.5 7.7 4.7 59 3.6 WNW 19 30 10 16 1020.2 1020.2 0.0
26/02:30pm 12.7 8.7 4.9 59 3.6 WNW 15 20 8 11 1020.3 1020.3 0.0
26/02:00pm 12.3 7.9 4.8 60 3.4 WNW 17 26 9 14 1020.4 1020.4 0.0
26/01:30pm 13.3 9.2 6.2 62 3.4 WNW 17 24 9 13 1020.5 1020.5 0.0
26/01:00pm 12.3 8.2 6.1 66 2.9 W 17 28 9 15 1020.9 1020.9 0.0
26/12:30pm 12.2 7.5 6.0 66 2.9 W 20 30 11 16 1021.4 1021.4 0.0
26/12:00pm 12.4 8.5 6.9 69 2.6 WNW 17 28 9 15 1021.6 1021.6 0.0
26/11:30am 11.3 7.8 7.2 76 2.0 W 15 22 8 12 1021.9 1021.9 0.0
26/11:00am 11.1 7.3 7.6 79 1.7 W 17 26 9 14 1022.1 1022.1 0.0
26/10:30am 11.4 8.2 8.4 82 1.5 WNW 15 24 8 13 1022.0 1022.0 0.0
26/10:00am 9.9 6.6 8.0 88 0.9 WNW 15 24 8 13 1022.0 1022.0 0.0
26/09:30am 9.2 5.4 7.5 89 0.8 WNW 17 24 9 13 1022.0 1022.0 0.0
26/09:00am 8.4 4.5 7.2 92 0.6 WNW 17 26 9 14 1021.9 1021.9 0.0
26/08:30am 8.6 5.9 7.5 93 0.5 WNW 11 17 6 9 1021.9 1021.9 0.0
26/08:00am 6.8 3.4 5.7 93 0.5 WNW 13 22 7 12 1021.7 1021.7 0.0
26/07:30am 6.9 2.8 6.0 94 0.4 WNW 17 26 9 14 1021.4 1021.4 0.0
26/07:00am 6.6 3.5 5.7 94 0.4 NW 11 19 6 10 1021.2 1021.2 0.0
26/06:30am 6.4 4.1 5.7 95 0.3 WNW 7 11 4 6 1020.8 1020.8 0.0
26/06:00am 5.8 3.6 5.1 95 0.3 WNW 6 9 3 5 1020.7 1020.7 0.0
26/05:30am 4.9 2.4 4.0 94 0.4 WNW 6 9 3 5 1020.6 1020.6 0.0
26/05:00am 6.0 3.6 5.1 94 0.4 WNW 7 9 4 5 1020.1 1020.1 0.0
26/04:30am 6.1 3.3 5.2 94 0.4 NW 9 11 5 6 1019.7 1019.7 0.0
26/04:00am 5.5 3.2 4.6 94 0.4 WNW 6 9 3 5 1019.7 1019.7 0.0
26/03:30am 5.3 2.9 4.4 94 0.4 NW 6 7 3 4 1019.4 1019.4 0.0
26/03:00am 5.0 2.4 4.1 94 0.4 NW 7 9 4 5 1019.8 1019.8 0.0
26/02:30am 5.3 2.9 4.4 94 0.4 WNW 6 7 3 4 1019.8 1019.8 0.0
26/02:00am 4.8 2.1 3.9 94 0.4 WNW 7 9 4 5 1019.8 1019.8 0.0
26/01:30am 4.9 1.9 3.9 93 0.4 NW 9 13 5 7 1020.0 1020.0 0.0
26/01:00am 5.6 3.6 4.6 93 0.4 WSW 4 6 2 3 1019.7 1019.7 0.0
26/12:30am 6.1 3.7 5.1 93 0.4 WNW 7 9 4 5 1019.8 1019.8 0.0
26/12:00am 5.8 3.5 4.8 93 0.4 WNW 6 7 3 4 1019.7 1019.7 0.0
 
Date/Time
EST
Temp
°C
App
Temp
°C
Dew
Point
°C
Rel
Hum
%
Delta-T
°C
Wind Press
QNH
hPa
Press
MSL
hPa
Rain since
9am
mm
Dir  Spd
km/h
Gust
km/h
Spd
kts
Gust
kts
25/11:30pm 6.0 3.5 5.0 93 0.4 WNW 7 13 4 7 1019.8 1019.8 0.0
25/11:00pm 6.6 3.9 5.4 92 0.5 NW 9 13 5 7 1019.6 1019.6 0.0
25/10:30pm 7.3 4.1 5.1 86 1.0 WSW 11 13 6 7 1019.4 1019.4 0.0
25/10:00pm 7.5 4.8 5.5 87 0.9 WSW 9 15 5 8 1019.4 1019.4 0.0
25/09:30pm 8.3 5.7 5.9 85 1.1 W 9 13 5 7 1019.3 1019.3 0.0
25/09:00pm 8.2 5.4 5.3 82 1.3 W 9 13 5 7 1019.2 1019.2 0.0
25/08:30pm 8.3 6.0 5.6 83 1.2 W 7 13 4 7 1019.1 1019.1 0.0
25/08:00pm 8.5 5.8 5.4 81 1.4 W 9 15 5 8 1018.9 1018.9 0.0
25/07:30pm 8.7 6.0 5.6 81 1.4 WSW 9 13 5 7 1018.5 1018.5 0.0
25/07:00pm 9.4 6.4 5.9 79 1.6 SW 11 15 6 8 1018.2 1018.2 0.0
25/06:30pm 9.8 6.4 6.0 77 1.8 SW 13 20 7 11 1017.7 1017.7 0.0
25/06:00pm 10.1 5.6 6.1 76 1.8 SW 19 24 10 13 1017.4 1017.4 0.0
25/05:30pm 10.7 7.0 6.3 74 2.1 SSW 15 22 8 12 1017.0 1017.0 0.0
25/05:00pm 11.1 5.7 6.3 72 2.2 SSW 24 33 13 18 1016.7 1016.7 0.0
25/04:30pm 12.0 6.6 6.3 68 2.7 SSW 24 35 13 19 1016.4 1016.4 0.0
25/04:00pm 11.7 6.5 5.6 66 2.8 SSW 22 30 12 16 1016.3 1016.3 0.0
25/03:30pm 13.0 8.1 6.8 66 3.0 SSW 22 28 12 15 1016.0 1016.0 0.0
25/03:00pm 11.9 7.2 6.2 68 2.7 SSW 20 30 11 16 1016.0 1016.0 0.0
25/02:30pm 12.4 7.2 7.1 70 2.6 SSW 24 32 13 17 1015.7 1015.7 0.0
25/02:00pm 12.9 8.6 8.0 72 2.4 SSW 20 30 11 16 1015.4 1015.4 0.0
25/01:30pm 11.9 7.6 7.2 73 2.3 SSW 19 24 10 13 1015.5 1015.5 0.0
25/01:00pm 10.6 5.4 7.3 80 1.6 SW 24 35 13 19 1015.8 1015.8 0.0
25/12:30pm 12.1 7.5 6.4 68 2.7 SSW 20 30 11 16 1015.7 1015.7 0.0
25/12:00pm 12.0 8.8 6.9 71 2.4 WSW 13 20 7 11 1015.7 1015.7 0.0
25/11:30am 11.1 8.0 7.4 78 1.8 WSW 13 22 7 12 1015.9 1015.9 0.0
25/11:00am 11.8 8.3 7.1 73 2.3 W 15 22 8 12 1015.7 1015.7 0.0
25/10:30am 10.9 7.3 6.8 76 1.9 W 15 22 8 12 1015.6 1015.6 0.0
25/10:00am 10.4 6.5 7.3 81 1.5 WSW 17 24 9 13 1015.3 1015.3 0.0
25/09:30am 9.4 6.0 7.5 88 0.9 WSW 15 20 8 11 1015.2 1015.2 0.0
25/09:00am 9.0 5.3 7.8 92 0.6 WSW 17 24 9 13 1015.0 1015.0 0.6
25/08:30am 7.4 4.1 6.3 93 0.5 W 13 22 7 12 1014.9 1014.9 0.6
25/08:00am 5.6 3.3 4.9 95 0.3 WNW 6 11 3 6 1014.7 1014.7 0.6
25/07:30am 4.9 2.5 4.2 95 0.3 WNW 6 7 3 4 1014.4 1014.4 0.6
25/07:00am 5.1 2.2 4.4 95 0.3 WNW 9 13 5 7 1014.3 1014.3 0.6
25/06:30am 5.0 2.0 4.3 95 0.3 WNW 9 15 5 8 1013.8 1013.8 0.4
25/06:00am 5.3 2.0 4.6 95 0.3 NW 11 17 6 9 1013.5 1013.5 0.4
25/05:30am 5.9 3.4 5.0 94 0.4 WNW 7 9 4 5 1013.5 1013.5 0.4
25/05:00am 6.1 3.3 5.2 94 0.4 W 9 15 5 8 1013.1 1013.1 0.4
25/04:30am 5.5 2.6 4.8 95 0.3 WNW 9 13 5 7 1013.4 1013.4 0.2
25/04:00am 4.8 1.8 3.9 94 0.4 WNW 9 13 5 7 1013.0 1013.0 0.2
25/03:30am 4.9 2.3 4.0 94 0.4 WNW 7 9 4 5 1013.0 1013.0 0.2
25/03:00am 5.4 3.0 4.5 94 0.4 NW 6 9 3 5 1013.0 1013.0 0.2
25/02:30am 4.5 1.8 3.6 94 0.4 NW 7 11 4 6 1013.3 1013.3 0.2
25/02:00am 4.5 2.0 3.6 94 0.4 WNW 6 9 3 5 1013.6 1013.6 0.2
25/01:30am 4.6 1.9 3.7 94 0.4 NW 7 11 4 6 1013.7 1013.7 0.2
25/01:00am 5.4 3.0 4.4 93 0.4 NW 6 7 3 4 1013.8 1013.8 0.2
25/12:30am 5.9 3.4 4.9 93 0.4 W 7 13 4 7 1013.8 1013.8 0.2
25/12:00am 5.8 3.5 4.8 93 0.4 WNW 6 9 3 5 1013.9 1013.9 0.2
 
Date/Time
EST
Temp
°C
App
Temp
°C
Dew
Point
°C
Rel
Hum
%
Delta-T
°C
Wind Press
QNH
hPa
Press
MSL
hPa
Rain since
9am
mm
Dir  Spd
km/h
Gust
km/h
Spd
kts
Gust
kts
24/11:30pm 6.4 4.0 5.2 92 0.5 W 7 11 4 6 1014.1 1014.1 0.2
24/11:00pm 6.2 3.7 5.0 92 0.5 W 7 9 4 5 1014.2 1014.2 0.2
24/10:30pm 6.4 4.0 5.2 92 0.5 W 7 9 4 5 1014.3 1014.3 0.2
24/10:00pm 6.7 4.3 5.2 90 0.7 W 7 9 4 5 1014.5 1014.5 0.2
24/09:30pm 7.0 4.8 5.5 90 0.7 W 6 7 3 4 1014.6 1014.6 0.2
24/09:00pm 7.7 5.4 5.7 87 0.9 WSW 7 9 4 5 1014.6 1014.6 0.2
24/08:30pm 8.6 6.4 6.4 86 1.0 WSW 7 11 4 6 1014.7 1014.7 0.2
24/08:00pm 9.0 7.0 7.1 88 0.9 WSW 7 11 4 6 1014.8 1014.8 0.2
24/07:30pm 9.1 6.7 7.2 88 0.9 WSW 9 13 5 7 1014.8 1014.8 0.2
24/07:00pm 9.0 6.6 7.0 87 0.9 WSW 9 13 5 7 1014.6 1014.6 0.2
24/06:30pm 9.1 7.1 7.1 87 0.9 SSW 7 9 4 5 1014.3 1014.3 0.2
24/06:00pm 8.7 6.5 6.2 84 1.1 S 7 11 4 6 1014.2 1014.2 0.2
24/05:30pm 9.6 6.5 5.4 75 1.9 S 11 17 6 9 1014.0 1014.0 0.2
24/05:00pm 10.4 6.8 5.2 70 2.4 S 13 20 7 11 1013.9 1013.9 0.2
24/04:30pm 11.6 8.5 7.1 74 2.2 SSE 13 19 7 10 1013.9 1013.9 0.2
24/04:00pm 11.2 7.5 6.3 72 2.3 SSE 15 26 8 14 1014.0 1014.0 0.2
24/03:30pm 11.2 6.9 7.7 79 1.7 S 20 26 11 14 1014.1 1014.1 0.2
24/03:00pm 11.3 8.8 9.6 89 0.9 S 13 20 7 11 1014.1 1014.1 0.2
24/02:30pm 10.5 6.8 9.3 92 0.6 SSW 19 24 10 13 1014.2 1014.2 0.2
24/02:00pm 11.0 7.4 9.8 92 0.6 S 19 26 10 14 1014.3 1014.3 0.2
24/01:30pm 12.3 8.6 7.8 74 2.2 SSE 17 24 9 13 1014.3 1014.3 0.2
24/01:00pm 11.5 7.6 8.5 82 1.5 S 19 24 10 13 1014.7 1014.7 0.2
24/12:30pm 11.1 7.4 9.4 89 0.9 S 19 26 10 14 1015.0 1015.0 0.2
24/12:00pm 11.6 8.9 10.2 91 0.7 S 15 20 8 11 1015.1 1015.1 0.2
24/11:30am 11.2 9.8 9.5 89 0.9 S 7 15 4 8 1015.5 1015.5 0.2
24/11:00am 9.9 8.5 8.8 93 0.5 SSW 6 9 3 5 1015.8 1015.8 0.2
24/10:30am 10.8 8.7 9.6 92 0.6 SSW 11 20 6 11 1016.1 1016.1 0.0
24/10:00am 10.2 7.9 9.1 93 0.5 SW 11 15 6 8 1016.2 1016.2 0.0
24/09:30am 10.1 8.2 9.2 94 0.4 WSW 9 13 5 7 1016.4 1016.4 0.0

Latest Capital City Observations: Canberra | Sydney | Melbourne | Brisbane | Adelaide | Perth | Hobart | Darwin

Other Formats:

Comma delimited format used in spreadsheet applications
http://www.bom.gov.au/fwo/IDV60901/IDV60901.94857.axf

JavaScript Object Notation format (JSON) in row-major order
http://www.bom.gov.au/fwo/IDV60901/IDV60901.94857.json